createdAt,value
2023-03-22T00:00:16.341Z,73.908904
2023-03-22T00:05:16.430Z,75.151724
2023-03-22T00:10:15.949Z,75.804110
2023-03-22T00:15:15.787Z,76.169444
2023-03-22T00:20:16.005Z,75.238194
2023-03-22T00:25:16.811Z,76.088112
2023-03-22T00:30:15.782Z,77.083333
2023-03-22T00:35:15.764Z,76.253521
2023-03-22T00:40:17.900Z,75.802817
2023-03-22T00:45:16.242Z,75.785315
2023-03-22T00:50:16.681Z,75.548592
2023-03-22T00:55:15.816Z,74.513287
2023-03-22T01:00:16.038Z,74.233103
2023-03-22T01:05:16.173Z,74.223077
2023-03-22T01:10:15.589Z,75.928671
2023-03-22T01:15:15.713Z,75.775352
2023-03-22T01:20:16.732Z,76.253472
2023-03-22T01:25:15.989Z,76.264828
2023-03-22T01:30:15.578Z,76.410417
2023-03-22T01:35:16.161Z,77.035417
2023-03-22T01:40:16.015Z,77.143750
2023-03-22T01:45:15.689Z,77.213380
2023-03-22T01:50:16.169Z,78.204930
2023-03-22T01:55:15.874Z,78.072727
2023-03-22T02:00:16.043Z,77.467361
2023-03-22T02:05:16.206Z,77.688112
2023-03-22T02:10:16.829Z,78.199275
2023-03-22T02:15:16.207Z,78.194245
2023-03-22T02:20:15.690Z,78.338571
2023-03-22T02:25:15.793Z,78.435000
2023-03-22T02:30:15.909Z,78.245390
2023-03-22T02:35:15.875Z,78.606383
2023-03-22T02:40:16.121Z,78.205634
2023-03-22T02:45:15.541Z,77.726573
2023-03-22T02:50:16.737Z,77.422069
2023-03-22T02:55:16.321Z,76.570833
2023-03-22T03:00:21.361Z,76.990780
2023-03-22T03:05:16.012Z,76.767832
2023-03-22T03:10:15.897Z,77.258741
2023-03-22T03:15:20.667Z,77.042254
2023-03-22T03:20:15.733Z,77.194366
2023-03-22T03:25:15.554Z,77.085915
2023-03-22T03:30:15.895Z,76.961871
2023-03-22T03:35:16.450Z,77.552143
2023-03-22T03:40:15.920Z,76.959155
2023-03-22T03:45:15.737Z,77.331206
2023-03-22T03:50:16.476Z,76.472028
2023-03-22T03:55:16.123Z,75.425000
2023-03-22T04:00:15.855Z,75.022222
2023-03-22T04:05:16.809Z,74.909155
2023-03-22T04:10:15.552Z,75.403472
2023-03-22T04:15:16.152Z,75.210417
2023-03-22T04:20:15.982Z,75.577778
2023-03-22T04:25:15.537Z,75.114583
2023-03-22T04:30:16.455Z,74.895804
2023-03-22T04:35:15.773Z,74.704861
2023-03-22T04:40:15.777Z,74.700000
2023-03-22T04:45:16.513Z,74.654861
2023-03-22T04:50:16.426Z,74.484828
2023-03-22T04:55:15.602Z,74.980690
2023-03-22T05:00:16.203Z,74.751748
2023-03-22T05:05:15.659Z,75.553521
2023-03-22T05:10:15.665Z,76.235915
2023-03-22T05:15:16.772Z,76.987234
2023-03-22T05:20:16.121Z,77.055944
2023-03-22T05:25:15.972Z,77.215862
2023-03-22T05:30:16.083Z,77.716552
2023-03-22T05:35:16.721Z,78.353425
2023-03-22T05:40:16.014Z,79.121769
2023-03-22T05:45:16.792Z,79.478082
2023-03-22T05:50:15.819Z,79.217007
2023-03-22T05:55:16.617Z,78.508784
2023-03-22T06:00:16.449Z,78.329252
2023-03-22T06:05:16.071Z,78.559184
2023-03-22T06:10:16.551Z,78.821622
2023-03-22T06:15:15.842Z,78.915541
2023-03-22T06:20:15.771Z,79.242953
2023-03-22T06:25:15.920Z,79.182550
2023-03-22T06:30:17.247Z,79.633562
2023-03-22T06:35:15.581Z,80.526174
2023-03-22T06:40:15.647Z,81.297279
2023-03-22T06:45:16.706Z,83.532877
2023-03-22T06:50:16.150Z,83.612587
2023-03-22T06:55:15.739Z,83.147586
2023-03-22T07:00:16.195Z,82.119444
2023-03-22T07:05:16.251Z,81.856250
2023-03-22T07:10:15.745Z,83.208276
2023-03-22T07:15:15.601Z,84.092414
2023-03-22T07:20:15.937Z,83.362585
2023-03-22T07:25:16.166Z,82.769178
2023-03-22T07:30:16.787Z,82.888966
2023-03-22T07:35:15.989Z,83.176389
2023-03-22T07:40:16.251Z,82.703448
2023-03-22T07:45:15.619Z,82.302759
2023-03-22T07:50:16.341Z,82.300000
2023-03-22T07:55:15.672Z,82.600690
2023-03-22T08:00:15.767Z,82.690972
2023-03-22T08:05:15.932Z,82.143537
2023-03-22T08:10:15.696Z,81.280822
2023-03-22T08:15:15.525Z,80.780952
2023-03-22T08:20:16.669Z,80.573973
2023-03-22T08:25:16.512Z,80.385616
2023-03-22T08:30:16.099Z,80.066892
2023-03-22T08:35:15.783Z,79.891216
2023-03-22T08:40:15.837Z,79.373973
2023-03-22T08:45:16.020Z,78.848980
2023-03-22T08:50:16.070Z,78.200000
2023-03-22T08:55:15.917Z,78.176389
2023-03-22T09:00:15.761Z,78.206944
2023-03-22T09:05:15.625Z,77.675000
2023-03-22T09:10:15.645Z,77.393750
2023-03-22T09:15:16.421Z,76.681944
2023-03-22T09:20:16.495Z,76.606250
2023-03-22T09:25:15.617Z,76.902083
2023-03-22T09:30:16.042Z,77.192857
2023-03-22T09:35:16.100Z,76.979021
2023-03-22T09:40:15.894Z,76.311189
2023-03-22T09:45:16.181Z,76.109028
2023-03-22T09:50:16.188Z,75.622222
2023-03-22T09:55:16.388Z,75.627972
2023-03-22T10:00:15.922Z,76.315000
2023-03-22T10:05:16.065Z,76.427273
2023-03-22T10:10:15.691Z,76.463194
2023-03-22T10:15:16.185Z,76.083916
2023-03-22T10:20:16.121Z,76.356250
2023-03-22T10:25:16.118Z,76.408276
2023-03-22T10:30:17.165Z,76.441667
2023-03-22T10:35:16.015Z,76.422603
2023-03-22T10:40:15.994Z,75.892414
2023-03-22T10:45:16.499Z,76.154861
2023-03-22T10:50:16.652Z,77.138732
2023-03-22T10:55:15.801Z,78.570548
2023-03-22T11:00:15.852Z,77.621379
2023-03-22T11:05:16.750Z,77.422759
2023-03-22T11:10:15.708Z,77.466207
2023-03-22T11:15:16.727Z,77.908966
2023-03-22T11:20:16.392Z,78.269178
2023-03-22T11:25:17.221Z,79.731757
2023-03-22T11:30:15.631Z,80.179452
2023-03-22T11:35:16.005Z,80.536054
2023-03-22T11:40:15.663Z,80.442177
2023-03-22T11:45:15.683Z,80.736552
2023-03-22T11:50:16.200Z,81.446207
2023-03-22T11:55:15.660Z,81.471918
2023-03-22T12:00:16.015Z,82.510345
2023-03-22T12:05:15.916Z,83.336806
2023-03-22T12:10:16.911Z,83.371528
2023-03-22T12:15:15.567Z,83.144218
2023-03-22T12:20:15.979Z,82.152055
2023-03-22T12:25:17.577Z,81.501351
2023-03-22T12:30:15.754Z,80.608219
2023-03-22T12:35:20.925Z,80.390345
2023-03-22T12:40:15.647Z,80.361644
2023-03-22T12:45:15.679Z,82.227891
2023-03-22T12:50:16.718Z,83.330137
2023-03-22T12:55:16.328Z,81.499320
2023-03-22T13:00:17.083Z,81.947945
2023-03-22T13:05:16.425Z,82.344595
2023-03-22T13:10:16.617Z,81.937584
2023-03-22T13:15:15.930Z,81.425874
2023-03-22T13:20:16.382Z,80.851389
2023-03-22T13:25:16.284Z,80.400694
2023-03-22T13:30:15.901Z,79.469231
2023-03-22T13:35:16.708Z,79.710563
2023-03-22T13:40:16.421Z,79.501389
2023-03-22T13:45:15.530Z,78.950000
2023-03-22T13:50:16.248Z,77.956552
2023-03-22T13:55:18.489Z,77.701370
2023-03-22T14:00:18.320Z,77.435172
2023-03-22T14:05:16.035Z,77.820000
2023-03-22T14:10:15.936Z,77.565068
2023-03-22T14:15:15.878Z,77.283893
2023-03-22T14:20:15.968Z,76.934694
2023-03-22T14:55:17.038Z,72.858904
2023-03-22T15:00:16.237Z,70.911724
2023-03-22T15:05:16.036Z,70.899306
2023-03-22T15:10:16.361Z,72.582639
2023-03-22T15:15:16.194Z,74.456250
2023-03-22T15:20:15.989Z,74.596503
2023-03-22T15:25:17.721Z,74.152778
2023-03-22T15:30:16.012Z,72.721831
2023-03-22T15:35:15.802Z,72.477465
2023-03-22T15:40:16.251Z,73.245139
2023-03-22T15:45:16.184Z,74.988652
2023-03-22T15:50:15.640Z,76.131690
2023-03-22T15:55:17.980Z,75.838298
2023-03-22T16:00:16.523Z,75.351748
2023-03-22T16:05:17.388Z,74.923776
2023-03-22T16:10:16.205Z,74.107746
2023-03-22T16:15:17.734Z,73.497917
2023-03-22T16:20:16.023Z,72.968531
2023-03-22T16:25:16.509Z,72.583333
2023-03-22T16:30:16.569Z,71.056250
2023-03-22T16:35:17.125Z,68.716084
2023-03-22T16:40:16.955Z,68.316084
2023-03-22T16:45:15.648Z,66.615972
2023-03-22T16:50:16.096Z,65.435172
2023-03-22T16:55:16.720Z,64.983562
2023-03-22T17:00:16.949Z,65.695862
2023-03-22T17:05:16.064Z,66.222449
2023-03-22T17:10:17.551Z,68.182313
2023-03-22T17:15:17.913Z,71.797872
2023-03-22T17:20:15.863Z,72.182979
2023-03-22T17:25:15.655Z,73.410072
2023-03-22T17:30:18.021Z,72.895139
2023-03-22T17:35:15.743Z,73.788406
2023-03-22T17:40:32.582Z,75.653237
2023-03-22T17:45:17.273Z,74.525000
2023-03-22T17:50:16.321Z,73.358042
2023-03-22T17:55:22.284Z,71.888276
2023-03-22T18:00:16.299Z,72.620139
2023-03-22T18:05:19.383Z,73.845833
2023-03-22T18:10:16.596Z,73.221918
2023-03-22T18:15:17.572Z,73.456338
2023-03-22T18:20:29.462Z,74.052143
2023-03-22T18:25:16.193Z,73.393662
2023-03-22T18:30:17.304Z,71.285315
2023-03-22T18:35:22.194Z,71.750694
2023-03-22T18:41:22.043Z,71.074483
2023-03-22T18:45:16.509Z,71.490345
2023-03-22T18:50:15.874Z,72.731724
2023-03-22T18:55:29.492Z,72.793793
2023-03-22T19:00:16.196Z,72.241781
2023-03-22T19:05:16.869Z,72.842759
2023-03-22T19:10:16.437Z,72.134722
2023-03-22T19:15:42.330Z,72.862759
2023-03-22T19:20:16.395Z,73.768056
2023-03-22T19:25:16.476Z,72.901379
2023-03-22T19:30:16.532Z,70.776389
2023-03-22T19:35:15.788Z,72.018493
2023-03-22T19:41:28.272Z,70.608333
2023-03-22T19:45:16.440Z,68.700694
2023-03-22T19:50:16.410Z,66.691667
2023-03-22T19:55:16.304Z,65.024138
2023-03-22T20:00:45.150Z,64.978082
2023-03-22T20:05:17.996Z,63.914189
2023-03-22T20:10:16.718Z,62.489933
2023-03-22T20:15:15.941Z,62.304730
2023-03-22T20:20:16.490Z,62.875676
2023-03-22T20:25:16.434Z,66.096622
2023-03-22T20:30:15.951Z,65.876510
2023-03-22T20:35:17.659Z,67.278523
2023-03-22T20:40:15.764Z,67.481879
2023-03-22T20:45:18.750Z,67.018367
2023-03-22T20:50:15.634Z,66.506040
2023-03-22T20:55:16.067Z,65.430667
2023-03-22T21:00:16.358Z,64.150000
2023-03-22T21:05:17.744Z,62.760544
2023-03-22T21:10:16.928Z,62.012500
2023-03-22T21:15:16.318Z,61.585315
2023-03-22T21:20:26.948Z,60.571918
2023-03-22T21:25:15.864Z,59.236986
2023-03-22T21:30:16.000Z,58.932192
2023-03-22T21:35:16.525Z,58.472789
2023-03-22T21:40:15.643Z,57.656849
2023-03-22T21:45:15.848Z,58.136986
2023-03-22T21:50:16.068Z,57.858219
2023-03-22T21:55:16.386Z,57.484722
2023-03-22T22:00:17.848Z,56.579577
2023-03-22T22:05:16.918Z,56.409091
2023-03-22T22:10:16.623Z,55.604196
2023-03-22T22:15:17.745Z,55.497222
2023-03-22T22:20:16.558Z,55.709859
2023-03-22T22:25:16.411Z,55.211268
2023-03-22T22:30:17.693Z,54.346207
2023-03-22T22:35:16.739Z,53.976761
2023-03-22T22:40:16.852Z,53.969014
2023-03-22T22:45:22.089Z,54.154610
2023-03-22T22:50:16.285Z,53.311972
2023-03-22T22:55:16.477Z,52.758571
2023-03-22T23:00:16.410Z,53.239716
2023-03-22T23:05:16.632Z,52.771631
2023-03-22T23:10:16.683Z,52.295745
2023-03-22T23:15:27.105Z,53.047518
2023-03-22T23:20:16.516Z,53.242553
2023-03-22T23:25:16.000Z,53.419858
2023-03-22T23:30:15.697Z,53.954610
2023-03-22T23:35:16.309Z,54.204965
2023-03-22T23:40:16.018Z,53.901399
2023-03-22T23:45:16.519Z,54.026761
2023-03-22T23:50:16.897Z,53.964789
2023-03-22T23:55:15.956Z,54.429577
